sensor_id;sensor_type;location;lat;lon;timestamp;P1;durP1;ratioP1;P2;durP2;ratioP2
70549;SDS011;58101;48.658;2.328;2023-12-07T00:01:19;29.48;;;9.93;;
70549;SDS011;58101;48.658;2.328;2023-12-07T00:03:45;34.75;;;12.13;;
70549;SDS011;58101;48.658;2.328;2023-12-07T00:06:10;32.78;;;10.90;;
70549;SDS011;58101;48.658;2.328;2023-12-07T00:08:36;29.77;;;10.05;;
70549;SDS011;58101;48.658;2.328;2023-12-07T00:11:01;28.77;;;9.30;;
70549;SDS011;58101;48.658;2.328;2023-12-07T00:13:27;36.22;;;9.77;;
70549;SDS011;58101;48.658;2.328;2023-12-07T00:15:53;33.28;;;9.90;;
70549;SDS011;58101;48.658;2.328;2023-12-07T00:18:18;26.88;;;8.93;;
70549;SDS011;58101;48.658;2.328;2023-12-07T00:20:44;33.75;;;11.73;;
70549;SDS011;58101;48.658;2.328;2023-12-07T00:23:10;29.75;;;9.85;;
70549;SDS011;58101;48.658;2.328;2023-12-07T00:25:36;29.98;;;9.55;;
70549;SDS011;58101;48.658;2.328;2023-12-07T00:28:01;33.13;;;10.90;;
70549;SDS011;58101;48.658;2.328;2023-12-07T00:30:28;30.13;;;9.68;;
70549;SDS011;58101;48.658;2.328;2023-12-07T00:32:53;25.67;;;8.20;;
70549;SDS011;58101;48.658;2.328;2023-12-07T00:35:19;24.70;;;8.40;;
70549;SDS011;58101;48.658;2.328;2023-12-07T00:37:47;31.58;;;9.10;;
70549;SDS011;58101;48.658;2.328;2023-12-07T00:40:13;27.02;;;8.23;;
70549;SDS011;58101;48.658;2.328;2023-12-07T00:42:39;25.60;;;8.43;;
70549;SDS011;58101;48.658;2.328;2023-12-07T00:45:05;30.90;;;8.98;;
70549;SDS011;58101;48.658;2.328;2023-12-07T00:47:30;27.80;;;8.55;;
70549;SDS011;58101;48.658;2.328;2023-12-07T00:49:56;27.50;;;8.65;;
70549;SDS011;58101;48.658;2.328;2023-12-07T00:52:22;31.92;;;8.70;;
70549;SDS011;58101;48.658;2.328;2023-12-07T00:54:47;33.25;;;9.68;;
70549;SDS011;58101;48.658;2.328;2023-12-07T00:57:13;32.05;;;9.40;;
70549;SDS011;58101;48.658;2.328;2023-12-07T00:59:38;31.23;;;8.68;;
70549;SDS011;58101;48.658;2.328;2023-12-07T01:02:04;27.70;;;8.60;;
70549;SDS011;58101;48.658;2.328;2023-12-07T01:04:30;32.20;;;8.55;;
70549;SDS011;58101;48.658;2.328;2023-12-07T01:06:56;28.95;;;9.35;;
70549;SDS011;58101;48.658;2.328;2023-12-07T01:09:22;30.80;;;8.93;;
70549;SDS011;58101;48.658;2.328;2023-12-07T01:11:49;29.98;;;8.82;;
70549;SDS011;58101;48.658;2.328;2023-12-07T01:14:14;31.30;;;8.77;;
70549;SDS011;58101;48.658;2.328;2023-12-07T01:16:41;27.48;;;8.73;;
70549;SDS011;58101;48.658;2.328;2023-12-07T01:19:07;25.08;;;8.63;;
70549;SDS011;58101;48.658;2.328;2023-12-07T01:21:33;31.42;;;8.85;;
70549;SDS011;58101;48.658;2.328;2023-12-07T01:23:59;34.15;;;9.93;;
70549;SDS011;58101;48.658;2.328;2023-12-07T01:26:24;29.42;;;9.23;;
70549;SDS011;58101;48.658;2.328;2023-12-07T01:28:50;33.80;;;9.10;;
70549;SDS011;58101;48.658;2.328;2023-12-07T01:31:16;30.15;;;8.90;;
70549;SDS011;58101;48.658;2.328;2023-12-07T01:33:42;27.20;;;8.90;;
70549;SDS011;58101;48.658;2.328;2023-12-07T01:36:08;22.63;;;8.05;;
70549;SDS011;58101;48.658;2.328;2023-12-07T01:38:34;27.20;;;8.07;;
70549;SDS011;58101;48.658;2.328;2023-12-07T01:40:59;27.23;;;9.02;;
70549;SDS011;58101;48.658;2.328;2023-12-07T01:43:25;25.10;;;8.00;;
70549;SDS011;58101;48.658;2.328;2023-12-07T01:45:51;27.60;;;8.93;;
70549;SDS011;58101;48.658;2.328;2023-12-07T01:48:20;23.45;;;8.13;;
70549;SDS011;58101;48.658;2.328;2023-12-07T01:50:46;28.33;;;8.95;;
70549;SDS011;58101;48.658;2.328;2023-12-07T01:53:12;24.52;;;7.65;;
70549;SDS011;58101;48.658;2.328;2023-12-07T01:55:39;29.27;;;8.43;;
70549;SDS011;58101;48.658;2.328;2023-12-07T01:58:06;24.65;;;7.78;;
70549;SDS011;58101;48.658;2.328;2023-12-07T02:00:32;24.77;;;8.57;;
70549;SDS011;58101;48.658;2.328;2023-12-07T02:02:59;28.48;;;8.90;;
70549;SDS011;58101;48.658;2.328;2023-12-07T02:05:29;26.80;;;8.02;;
70549;SDS011;58101;48.658;2.328;2023-12-07T02:07:54;26.92;;;7.63;;
70549;SDS011;58101;48.658;2.328;2023-12-07T02:10:20;25.35;;;8.07;;
70549;SDS011;58101;48.658;2.328;2023-12-07T02:12:46;23.63;;;7.85;;
70549;SDS011;58101;48.658;2.328;2023-12-07T02:15:12;23.80;;;7.05;;
70549;SDS011;58101;48.658;2.328;2023-12-07T02:20:35;24.77;;;7.53;;
70549;SDS011;58101;48.658;2.328;2023-12-07T02:23:17;25.38;;;8.07;;
70549;SDS011;58101;48.658;2.328;2023-12-07T02:25:53;32.22;;;8.23;;
70549;SDS011;58101;48.658;2.328;2023-12-07T02:28:20;21.42;;;7.03;;
70549;SDS011;58101;48.658;2.328;2023-12-07T02:30:45;22.13;;;7.63;;
70549;SDS011;58101;48.658;2.328;2023-12-07T02:33:11;23.30;;;7.30;;
70549;SDS011;58101;48.658;2.328;2023-12-07T02:35:37;21.08;;;7.80;;
70549;SDS011;58101;48.658;2.328;2023-12-07T02:38:05;22.65;;;7.20;;
70549;SDS011;58101;48.658;2.328;2023-12-07T02:40:32;19.05;;;6.97;;
70549;SDS011;58101;48.658;2.328;2023-12-07T02:42:59;23.48;;;8.07;;
70549;SDS011;58101;48.658;2.328;2023-12-07T02:45:26;21.30;;;7.25;;
70549;SDS011;58101;48.658;2.328;2023-12-07T02:47:52;23.60;;;7.72;;
70549;SDS011;58101;48.658;2.328;2023-12-07T02:50:18;21.65;;;8.10;;
70549;SDS011;58101;48.658;2.328;2023-12-07T02:52:45;22.08;;;8.15;;
70549;SDS011;58101;48.658;2.328;2023-12-07T02:55:10;23.90;;;7.35;;
70549;SDS011;58101;48.658;2.328;2023-12-07T02:57:36;23.63;;;7.75;;
70549;SDS011;58101;48.658;2.328;2023-12-07T03:00:02;22.85;;;7.30;;
70549;SDS011;58101;48.658;2.328;2023-12-07T03:02:32;20.88;;;7.97;;
70549;SDS011;58101;48.658;2.328;2023-12-07T03:05:02;25.45;;;7.90;;
70549;SDS011;58101;48.658;2.328;2023-12-07T03:07:27;25.63;;;8.73;;
70549;SDS011;58101;48.658;2.328;2023-12-07T03:09:53;26.58;;;9.07;;
70549;SDS011;58101;48.658;2.328;2023-12-07T03:12:19;21.58;;;7.32;;
70549;SDS011;58101;48.658;2.328;2023-12-07T03:14:44;23.55;;;7.72;;
70549;SDS011;58101;48.658;2.328;2023-12-07T03:17:10;21.17;;;7.35;;
70549;SDS011;58101;48.658;2.328;2023-12-07T03:19:39;23.17;;;7.82;;
70549;SDS011;58101;48.658;2.328;2023-12-07T03:22:05;29.48;;;9.50;;
70549;SDS011;58101;48.658;2.328;2023-12-07T03:24:34;34.50;;;9.55;;
70549;SDS011;58101;48.658;2.328;2023-12-07T03:27:01;42.75;;;11.32;;
70549;SDS011;58101;48.658;2.328;2023-12-07T03:29:26;43.97;;;12.05;;
70549;SDS011;58101;48.658;2.328;2023-12-07T03:31:52;26.80;;;8.65;;
70549;SDS011;58101;48.658;2.328;2023-12-07T03:34:18;21.67;;;8.13;;
70549;SDS011;58101;48.658;2.328;2023-12-07T03:36:46;22.75;;;7.65;;
70549;SDS011;58101;48.658;2.328;2023-12-07T03:39:13;28.20;;;9.23;;
70549;SDS011;58101;48.658;2.328;2023-12-07T03:41:39;37.63;;;10.77;;
70549;SDS011;58101;48.658;2.328;2023-12-07T03:44:05;29.73;;;9.23;;
70549;SDS011;58101;48.658;2.328;2023-12-07T03:46:31;29.15;;;10.25;;
70549;SDS011;58101;48.658;2.328;2023-12-07T03:48:56;34.10;;;10.18;;
70549;SDS011;58101;48.658;2.328;2023-12-07T03:51:22;31.92;;;9.95;;
70549;SDS011;58101;48.658;2.328;2023-12-07T03:53:48;21.85;;;7.28;;
70549;SDS011;58101;48.658;2.328;2023-12-07T03:56:23;33.67;;;10.20;;
70549;SDS011;58101;48.658;2.328;2023-12-07T03:58:49;27.10;;;8.70;;
70549;SDS011;58101;48.658;2.328;2023-12-07T04:01:14;26.77;;;9.13;;
70549;SDS011;58101;48.658;2.328;2023-12-07T04:03:40;31.13;;;10.38;;
70549;SDS011;58101;48.658;2.328;2023-12-07T04:06:05;29.45;;;10.23;;
70549;SDS011;58101;48.658;2.328;2023-12-07T04:08:31;20.15;;;7.85;;
70549;SDS011;58101;48.658;2.328;2023-12-07T04:10:58;23.98;;;8.35;;
70549;SDS011;58101;48.658;2.328;2023-12-07T04:13:23;21.17;;;7.97;;
70549;SDS011;58101;48.658;2.328;2023-12-07T04:15:49;22.88;;;7.65;;
70549;SDS011;58101;48.658;2.328;2023-12-07T04:18:15;19.13;;;7.03;;
70549;SDS011;58101;48.658;2.328;2023-12-07T04:20:40;18.65;;;6.68;;
70549;SDS011;58101;48.658;2.328;2023-12-07T04:23:06;20.40;;;7.00;;
70549;SDS011;58101;48.658;2.328;2023-12-07T04:25:32;19.98;;;6.55;;
70549;SDS011;58101;48.658;2.328;2023-12-07T04:27:58;22.13;;;8.10;;
70549;SDS011;58101;48.658;2.328;2023-12-07T04:30:24;18.38;;;6.93;;
70549;SDS011;58101;48.658;2.328;2023-12-07T04:32:49;16.98;;;6.20;;
70549;SDS011;58101;48.658;2.328;2023-12-07T04:35:15;17.20;;;7.00;;
70549;SDS011;58101;48.658;2.328;2023-12-07T04:37:41;19.48;;;6.78;;
70549;SDS011;58101;48.658;2.328;2023-12-07T04:40:07;18.45;;;6.97;;
70549;SDS011;58101;48.658;2.328;2023-12-07T04:42:33;19.23;;;7.57;;
70549;SDS011;58101;48.658;2.328;2023-12-07T04:44:58;20.83;;;7.35;;
70549;SDS011;58101;48.658;2.328;2023-12-07T04:47:24;17.65;;;7.35;;
70549;SDS011;58101;48.658;2.328;2023-12-07T04:49:50;21.10;;;7.40;;
70549;SDS011;58101;48.658;2.328;2023-12-07T04:52:15;17.45;;;7.00;;
70549;SDS011;58101;48.658;2.328;2023-12-07T04:54:41;18.95;;;7.05;;
70549;SDS011;58101;48.658;2.328;2023-12-07T04:57:07;50.28;;;12.93;;
70549;SDS011;58101;48.658;2.328;2023-12-07T04:59:32;20.05;;;6.90;;
70549;SDS011;58101;48.658;2.328;2023-12-07T05:01:58;19.73;;;6.72;;
70549;SDS011;58101;48.658;2.328;2023-12-07T05:04:23;45.65;;;11.25;;
70549;SDS011;58101;48.658;2.328;2023-12-07T05:06:49;38.65;;;10.35;;
70549;SDS011;58101;48.658;2.328;2023-12-07T05:09:14;28.42;;;8.35;;
70549;SDS011;58101;48.658;2.328;2023-12-07T05:11:40;41.60;;;12.50;;
70549;SDS011;58101;48.658;2.328;2023-12-07T05:14:06;34.38;;;10.07;;
70549;SDS011;58101;48.658;2.328;2023-12-07T05:16:32;50.90;;;12.57;;
70549;SDS011;58101;48.658;2.328;2023-12-07T05:18:58;35.15;;;10.30;;
70549;SDS011;58101;48.658;2.328;2023-12-07T05:21:23;40.72;;;11.63;;
70549;SDS011;58101;48.658;2.328;2023-12-07T05:23:49;46.55;;;12.90;;
70549;SDS011;58101;48.658;2.328;2023-12-07T05:26:15;71.88;;;16.20;;
70549;SDS011;58101;48.658;2.328;2023-12-07T05:28:41;44.70;;;11.57;;
70549;SDS011;58101;48.658;2.328;2023-12-07T05:31:06;66.15;;;15.55;;
70549;SDS011;58101;48.658;2.328;2023-12-07T05:33:32;24.05;;;7.63;;
70549;SDS011;58101;48.658;2.328;2023-12-07T05:35:58;26.52;;;8.30;;
70549;SDS011;58101;48.658;2.328;2023-12-07T05:38:25;26.55;;;8.13;;
70549;SDS011;58101;48.658;2.328;2023-12-07T05:40:51;38.30;;;11.18;;
70549;SDS011;58101;48.658;2.328;2023-12-07T05:43:16;18.73;;;6.72;;
70549;SDS011;58101;48.658;2.328;2023-12-07T05:45:42;16.08;;;6.47;;
70549;SDS011;58101;48.658;2.328;2023-12-07T05:48:07;19.27;;;7.45;;
70549;SDS011;58101;48.658;2.328;2023-12-07T05:50:33;19.98;;;7.57;;
70549;SDS011;58101;48.658;2.328;2023-12-07T05:53:00;20.55;;;7.32;;
70549;SDS011;58101;48.658;2.328;2023-12-07T05:55:26;26.88;;;9.60;;
70549;SDS011;58101;48.658;2.328;2023-12-07T05:57:51;25.75;;;8.50;;
70549;SDS011;58101;48.658;2.328;2023-12-07T06:00:17;24.08;;;8.18;;
70549;SDS011;58101;48.658;2.328;2023-12-07T06:02:44;18.70;;;7.43;;
70549;SDS011;58101;48.658;2.328;2023-12-07T06:05:09;16.88;;;6.50;;
70549;SDS011;58101;48.658;2.328;2023-12-07T06:07:36;16.75;;;6.88;;
70549;SDS011;58101;48.658;2.328;2023-12-07T06:10:01;13.80;;;5.88;;
70549;SDS011;58101;48.658;2.328;2023-12-07T06:12:27;19.33;;;7.90;;
70549;SDS011;58101;48.658;2.328;2023-12-07T06:14:52;16.80;;;6.68;;
70549;SDS011;58101;48.658;2.328;2023-12-07T06:17:19;19.15;;;6.63;;
70549;SDS011;58101;48.658;2.328;2023-12-07T06:19:45;19.38;;;6.32;;
70549;SDS011;58101;48.658;2.328;2023-12-07T06:22:10;20.30;;;7.00;;
70549;SDS011;58101;48.658;2.328;2023-12-07T06:24:38;24.42;;;8.82;;
70549;SDS011;58101;48.658;2.328;2023-12-07T06:27:04;17.63;;;6.88;;
70549;SDS011;58101;48.658;2.328;2023-12-07T06:29:30;27.08;;;8.80;;
70549;SDS011;58101;48.658;2.328;2023-12-07T06:31:55;16.48;;;6.53;;
70549;SDS011;58101;48.658;2.328;2023-12-07T06:34:22;21.40;;;7.00;;
70549;SDS011;58101;48.658;2.328;2023-12-07T06:36:47;17.98;;;6.95;;
70549;SDS011;58101;48.658;2.328;2023-12-07T06:39:13;18.35;;;6.65;;
70549;SDS011;58101;48.658;2.328;2023-12-07T06:41:42;20.33;;;7.07;;
70549;SDS011;58101;48.658;2.328;2023-12-07T06:44:07;26.75;;;9.18;;
70549;SDS011;58101;48.658;2.328;2023-12-07T06:46:33;32.22;;;10.43;;
70549;SDS011;58101;48.658;2.328;2023-12-07T06:48:59;19.30;;;6.63;;
70549;SDS011;58101;48.658;2.328;2023-12-07T06:51:25;19.88;;;8.00;;
70549;SDS011;58101;48.658;2.328;2023-12-07T06:53:51;18.30;;;7.22;;
70549;SDS011;58101;48.658;2.328;2023-12-07T06:56:17;20.83;;;7.93;;
70549;SDS011;58101;48.658;2.328;2023-12-07T06:58:43;21.35;;;8.27;;
70549;SDS011;58101;48.658;2.328;2023-12-07T07:01:08;28.95;;;9.52;;
70549;SDS011;58101;48.658;2.328;2023-12-07T07:03:34;28.17;;;9.90;;
70549;SDS011;58101;48.658;2.328;2023-12-07T07:06:00;19.60;;;8.15;;
70549;SDS011;58101;48.658;2.328;2023-12-07T07:08:25;29.38;;;9.15;;
70549;SDS011;58101;48.658;2.328;2023-12-07T07:10:51;17.23;;;6.88;;
70549;SDS011;58101;48.658;2.328;2023-12-07T07:13:17;18.70;;;7.03;;
70549;SDS011;58101;48.658;2.328;2023-12-07T07:15:44;21.38;;;7.47;;
70549;SDS011;58101;48.658;2.328;2023-12-07T07:18:10;18.50;;;6.63;;
70549;SDS011;58101;48.658;2.328;2023-12-07T07:20:36;14.43;;;5.55;;
70549;SDS011;58101;48.658;2.328;2023-12-07T07:23:01;23.55;;;8.10;;
70549;SDS011;58101;48.658;2.328;2023-12-07T07:25:27;16.08;;;6.13;;
70549;SDS011;58101;48.658;2.328;2023-12-07T07:27:53;15.90;;;6.45;;
70549;SDS011;58101;48.658;2.328;2023-12-07T07:30:19;27.80;;;8.85;;
70549;SDS011;58101;48.658;2.328;2023-12-07T07:32:48;24.60;;;8.43;;
70549;SDS011;58101;48.658;2.328;2023-12-07T07:35:15;17.60;;;6.38;;
70549;SDS011;58101;48.658;2.328;2023-12-07T07:37:40;17.50;;;6.65;;
70549;SDS011;58101;48.658;2.328;2023-12-07T07:40:07;15.75;;;5.88;;
70549;SDS011;58101;48.658;2.328;2023-12-07T07:42:36;15.70;;;6.43;;
70549;SDS011;58101;48.658;2.328;2023-12-07T07:45:05;15.32;;;5.88;;
70549;SDS011;58101;48.658;2.328;2023-12-07T07:47:34;20.83;;;7.43;;
70549;SDS011;58101;48.658;2.328;2023-12-07T07:50:00;38.95;;;12.25;;
70549;SDS011;58101;48.658;2.328;2023-12-07T07:52:31;21.45;;;7.65;;
70549;SDS011;58101;48.658;2.328;2023-12-07T07:54:58;102.07;;;31.15;;
70549;SDS011;58101;48.658;2.328;2023-12-07T07:57:24;24.63;;;9.65;;
70549;SDS011;58101;48.658;2.328;2023-12-07T07:59:49;15.55;;;6.45;;
70549;SDS011;58101;48.658;2.328;2023-12-07T08:02:15;20.02;;;8.18;;
70549;SDS011;58101;48.658;2.328;2023-12-07T08:04:41;18.88;;;7.97;;
70549;SDS011;58101;48.658;2.328;2023-12-07T08:07:06;14.18;;;5.70;;
70549;SDS011;58101;48.658;2.328;2023-12-07T08:09:33;16.83;;;6.97;;
70549;SDS011;58101;48.658;2.328;2023-12-07T08:11:58;17.48;;;7.40;;
70549;SDS011;58101;48.658;2.328;2023-12-07T08:14:24;15.73;;;5.65;;
70549;SDS011;58101;48.658;2.328;2023-12-07T08:16:49;12.80;;;5.40;;
70549;SDS011;58101;48.658;2.328;2023-12-07T08:19:15;13.02;;;5.30;;
70549;SDS011;58101;48.658;2.328;2023-12-07T08:21:40;16.52;;;5.65;;
70549;SDS011;58101;48.658;2.328;2023-12-07T08:24:06;14.23;;;5.47;;
70549;SDS011;58101;48.658;2.328;2023-12-07T08:26:32;12.88;;;5.43;;
70549;SDS011;58101;48.658;2.328;2023-12-07T08:28:57;13.20;;;5.25;;
70549;SDS011;58101;48.658;2.328;2023-12-07T08:31:23;13.07;;;5.53;;
70549;SDS011;58101;48.658;2.328;2023-12-07T08:33:50;12.23;;;5.25;;
70549;SDS011;58101;48.658;2.328;2023-12-07T08:36:16;11.68;;;5.00;;
70549;SDS011;58101;48.658;2.328;2023-12-07T08:38:42;13.63;;;5.90;;
70549;SDS011;58101;48.658;2.328;2023-12-07T08:41:07;13.05;;;5.20;;
70549;SDS011;58101;48.658;2.328;2023-12-07T08:43:33;12.05;;;4.90;;
70549;SDS011;58101;48.658;2.328;2023-12-07T08:45:59;13.55;;;5.20;;
70549;SDS011;58101;48.658;2.328;2023-12-07T08:48:24;11.40;;;4.72;;
70549;SDS011;58101;48.658;2.328;2023-12-07T08:50:50;13.00;;;4.68;;
70549;SDS011;58101;48.658;2.328;2023-12-07T08:53:16;12.40;;;4.70;;
70549;SDS011;58101;48.658;2.328;2023-12-07T08:55:42;12.68;;;4.80;;
70549;SDS011;58101;48.658;2.328;2023-12-07T08:58:07;11.43;;;4.57;;
70549;SDS011;58101;48.658;2.328;2023-12-07T09:00:33;13.70;;;4.70;;
70549;SDS011;58101;48.658;2.328;2023-12-07T09:02:59;12.82;;;5.20;;
70549;SDS011;58101;48.658;2.328;2023-12-07T09:05:27;11.98;;;4.68;;
70549;SDS011;58101;48.658;2.328;2023-12-07T09:07:54;14.07;;;4.75;;
70549;SDS011;58101;48.658;2.328;2023-12-07T09:10:21;11.48;;;4.68;;
70549;SDS011;58101;48.658;2.328;2023-12-07T09:12:47;13.25;;;4.80;;
70549;SDS011;58101;48.658;2.328;2023-12-07T09:15:13;14.38;;;5.18;;
70549;SDS011;58101;48.658;2.328;2023-12-07T09:17:38;13.32;;;4.82;;
70549;SDS011;58101;48.658;2.328;2023-12-07T09:20:06;13.13;;;4.53;;
70549;SDS011;58101;48.658;2.328;2023-12-07T09:22:43;11.77;;;4.00;;
70549;SDS011;58101;48.658;2.328;2023-12-07T09:25:09;13.32;;;4.60;;
70549;SDS011;58101;48.658;2.328;2023-12-07T09:27:36;10.10;;;4.22;;
70549;SDS011;58101;48.658;2.328;2023-12-07T09:30:06;10.88;;;4.40;;
70549;SDS011;58101;48.658;2.328;2023-12-07T09:32:35;11.95;;;4.30;;
70549;SDS011;58101;48.658;2.328;2023-12-07T09:35:05;11.55;;;4.55;;
70549;SDS011;58101;48.658;2.328;2023-12-07T09:37:39;12.63;;;4.68;;
70549;SDS011;58101;48.658;2.328;2023-12-07T09:40:06;16.33;;;5.20;;
70549;SDS011;58101;48.658;2.328;2023-12-07T09:42:32;10.80;;;4.82;;
70549;SDS011;58101;48.658;2.328;2023-12-07T09:44:58;13.25;;;5.18;;
70549;SDS011;58101;48.658;2.328;2023-12-07T09:47:26;12.07;;;4.97;;
70549;SDS011;58101;48.658;2.328;2023-12-07T09:49:52;10.75;;;4.72;;
70549;SDS011;58101;48.658;2.328;2023-12-07T09:52:18;12.20;;;4.53;;
70549;SDS011;58101;48.658;2.328;2023-12-07T09:54:46;11.80;;;4.72;;
70549;SDS011;58101;48.658;2.328;2023-12-07T09:57:12;13.50;;;4.82;;
70549;SDS011;58101;48.658;2.328;2023-12-07T09:59:39;12.15;;;5.00;;
70549;SDS011;58101;48.658;2.328;2023-12-07T10:02:06;12.23;;;4.90;;
70549;SDS011;58101;48.658;2.328;2023-12-07T10:04:32;15.35;;;5.32;;
70549;SDS011;58101;48.658;2.328;2023-12-07T10:06:58;14.95;;;5.13;;
70549;SDS011;58101;48.658;2.328;2023-12-07T10:09:23;11.75;;;4.57;;
70549;SDS011;58101;48.658;2.328;2023-12-07T10:11:57;13.32;;;4.65;;
70549;SDS011;58101;48.658;2.328;2023-12-07T10:14:27;11.50;;;4.90;;
70549;SDS011;58101;48.658;2.328;2023-12-07T10:16:53;12.95;;;4.80;;
70549;SDS011;58101;48.658;2.328;2023-12-07T10:19:22;11.18;;;4.43;;
70549;SDS011;58101;48.658;2.328;2023-12-07T10:21:49;12.48;;;4.57;;
70549;SDS011;58101;48.658;2.328;2023-12-07T10:24:16;13.88;;;5.30;;
70549;SDS011;58101;48.658;2.328;2023-12-07T10:26:43;16.02;;;5.57;;
70549;SDS011;58101;48.658;2.328;2023-12-07T10:29:09;17.48;;;7.22;;
70549;SDS011;58101;48.658;2.328;2023-12-07T10:31:36;10.73;;;4.13;;
70549;SDS011;58101;48.658;2.328;2023-12-07T10:34:02;10.57;;;4.43;;
70549;SDS011;58101;48.658;2.328;2023-12-07T10:36:28;12.23;;;4.32;;
70549;SDS011;58101;48.658;2.328;2023-12-07T10:38:54;8.95;;;3.70;;
70549;SDS011;58101;48.658;2.328;2023-12-07T10:41:20;10.88;;;4.25;;
70549;SDS011;58101;48.658;2.328;2023-12-07T10:43:57;12.38;;;4.50;;
70549;SDS011;58101;48.658;2.328;2023-12-07T10:46:27;10.90;;;3.75;;
70549;SDS011;58101;48.658;2.328;2023-12-07T10:48:55;11.70;;;4.35;;
70549;SDS011;58101;48.658;2.328;2023-12-07T10:53:50;11.07;;;4.32;;
70549;SDS011;58101;48.658;2.328;2023-12-07T10:59:07;11.13;;;3.95;;
70549;SDS011;58101;48.658;2.328;2023-12-07T11:01:37;14.27;;;5.60;;
70549;SDS011;58101;48.658;2.328;2023-12-07T11:04:04;10.68;;;4.68;;
70549;SDS011;58101;48.658;2.328;2023-12-07T11:06:31;10.40;;;4.32;;
70549;SDS011;58101;48.658;2.328;2023-12-07T11:09:01;11.43;;;4.75;;
70549;SDS011;58101;48.658;2.328;2023-12-07T11:14:02;12.60;;;4.10;;
70549;SDS011;58101;48.658;2.328;2023-12-07T11:16:40;10.23;;;3.85;;
70549;SDS011;58101;48.658;2.328;2023-12-07T11:21:57;11.18;;;4.18;;
70549;SDS011;58101;48.658;2.328;2023-12-07T11:24:26;23.50;;;7.60;;
70549;SDS011;58101;48.658;2.328;2023-12-07T11:26:52;10.68;;;4.43;;
70549;SDS011;58101;48.658;2.328;2023-12-07T11:29:21;12.15;;;3.88;;
70549;SDS011;58101;48.658;2.328;2023-12-07T11:31:49;10.68;;;4.40;;
70549;SDS011;58101;48.658;2.328;2023-12-07T11:37:01;12.52;;;4.90;;
70549;SDS011;58101;48.658;2.328;2023-12-07T11:39:27;11.75;;;4.55;;
70549;SDS011;58101;48.658;2.328;2023-12-07T11:44:36;9.75;;;3.85;;
70549;SDS011;58101;48.658;2.328;2023-12-07T11:47:03;9.75;;;3.60;;
70549;SDS011;58101;48.658;2.328;2023-12-07T11:49:30;10.45;;;3.58;;
70549;SDS011;58101;48.658;2.328;2023-12-07T11:51:57;9.68;;;3.83;;
70549;SDS011;58101;48.658;2.328;2023-12-07T11:54:23;10.77;;;3.55;;
70549;SDS011;58101;48.658;2.328;2023-12-07T11:56:56;15.57;;;5.22;;
70549;SDS011;58101;48.658;2.328;2023-12-07T11:59:22;11.57;;;4.15;;
70549;SDS011;58101;48.658;2.328;2023-12-07T12:01:51;9.38;;;4.00;;
70549;SDS011;58101;48.658;2.328;2023-12-07T12:04:16;10.70;;;4.00;;
70549;SDS011;58101;48.658;2.328;2023-12-07T12:06:43;8.77;;;3.20;;
70549;SDS011;58101;48.658;2.328;2023-12-07T12:14:14;10.07;;;3.63;;
70549;SDS011;58101;48.658;2.328;2023-12-07T12:16:41;9.55;;;3.55;;
70549;SDS011;58101;48.658;2.328;2023-12-07T12:19:11;11.65;;;3.92;;
70549;SDS011;58101;48.658;2.328;2023-12-07T12:21:37;8.60;;;3.47;;
70549;SDS011;58101;48.658;2.328;2023-12-07T12:24:06;13.23;;;4.38;;
70549;SDS011;58101;48.658;2.328;2023-12-07T12:26:35;8.95;;;3.45;;
70549;SDS011;58101;48.658;2.328;2023-12-07T12:29:03;9.93;;;3.78;;
70549;SDS011;58101;48.658;2.328;2023-12-07T12:31:30;10.27;;;3.70;;
70549;SDS011;58101;48.658;2.328;2023-12-07T12:33:57;10.68;;;3.70;;
70549;SDS011;58101;48.658;2.328;2023-12-07T12:36:23;10.02;;;4.10;;
70549;SDS011;58101;48.658;2.328;2023-12-07T12:38:52;10.15;;;3.97;;
70549;SDS011;58101;48.658;2.328;2023-12-07T12:41:24;9.65;;;3.80;;
70549;SDS011;58101;48.658;2.328;2023-12-07T12:43:49;8.68;;;3.33;;
70549;SDS011;58101;48.658;2.328;2023-12-07T12:46:17;14.68;;;3.88;;
70549;SDS011;58101;48.658;2.328;2023-12-07T12:48:52;10.85;;;4.30;;
70549;SDS011;58101;48.658;2.328;2023-12-07T12:51:19;9.60;;;3.78;;
70549;SDS011;58101;48.658;2.328;2023-12-07T12:53:46;8.65;;;3.70;;
70549;SDS011;58101;48.658;2.328;2023-12-07T12:56:13;10.05;;;3.83;;
70549;SDS011;58101;48.658;2.328;2023-12-07T12:58:39;9.27;;;2.60;;
70549;SDS011;58101;48.658;2.328;2023-12-07T13:01:05;8.65;;;3.30;;
70549;SDS011;58101;48.658;2.328;2023-12-07T13:03:31;8.57;;;3.00;;
70549;SDS011;58101;48.658;2.328;2023-12-07T13:05:57;11.95;;;4.50;;
70549;SDS011;58101;48.658;2.328;2023-12-07T13:08:23;9.55;;;3.40;;
70549;SDS011;58101;48.658;2.328;2023-12-07T13:10:49;9.48;;;3.58;;
70549;SDS011;58101;48.658;2.328;2023-12-07T13:13:15;8.77;;;3.45;;
70549;SDS011;58101;48.658;2.328;2023-12-07T13:15:41;8.57;;;3.13;;
70549;SDS011;58101;48.658;2.328;2023-12-07T13:18:07;7.85;;;3.22;;
70549;SDS011;58101;48.658;2.328;2023-12-07T13:20:33;12.10;;;3.42;;
70549;SDS011;58101;48.658;2.328;2023-12-07T13:23:00;8.10;;;3.35;;
70549;SDS011;58101;48.658;2.328;2023-12-07T13:25:26;9.75;;;3.50;;
70549;SDS011;58101;48.658;2.328;2023-12-07T13:27:51;8.68;;;3.10;;
70549;SDS011;58101;48.658;2.328;2023-12-07T13:30:17;8.38;;;3.28;;
70549;SDS011;58101;48.658;2.328;2023-12-07T13:32:43;8.70;;;3.38;;
70549;SDS011;58101;48.658;2.328;2023-12-07T13:35:09;9.75;;;3.20;;
70549;SDS011;58101;48.658;2.328;2023-12-07T13:37:35;10.20;;;3.63;;
70549;SDS011;58101;48.658;2.328;2023-12-07T13:40:01;9.48;;;3.40;;
70549;SDS011;58101;48.658;2.328;2023-12-07T13:42:29;7.90;;;3.20;;
70549;SDS011;58101;48.658;2.328;2023-12-07T13:47:23;11.13;;;3.72;;
70549;SDS011;58101;48.658;2.328;2023-12-07T13:49:53;9.70;;;3.47;;
70549;SDS011;58101;48.658;2.328;2023-12-07T13:52:21;8.48;;;3.33;;
70549;SDS011;58101;48.658;2.328;2023-12-07T13:54:47;17.05;;;6.50;;
70549;SDS011;58101;48.658;2.328;2023-12-07T13:57:13;31.58;;;11.63;;
70549;SDS011;58101;48.658;2.328;2023-12-07T13:59:39;38.22;;;15.25;;
70549;SDS011;58101;48.658;2.328;2023-12-07T14:02:05;29.55;;;10.82;;
70549;SDS011;58101;48.658;2.328;2023-12-07T14:04:31;23.60;;;9.23;;
70549;SDS011;58101;48.658;2.328;2023-12-07T14:09:56;25.95;;;8.00;;
70549;SDS011;58101;48.658;2.328;2023-12-07T14:12:21;21.70;;;7.93;;
70549;SDS011;58101;48.658;2.328;2023-12-07T14:14:48;14.82;;;6.15;;
70549;SDS011;58101;48.658;2.328;2023-12-07T14:17:14;9.30;;;3.70;;
70549;SDS011;58101;48.658;2.328;2023-12-07T14:19:41;10.00;;;4.03;;
70549;SDS011;58101;48.658;2.328;2023-12-07T14:22:07;9.50;;;3.80;;
70549;SDS011;58101;48.658;2.328;2023-12-07T14:24:36;8.88;;;3.13;;
70549;SDS011;58101;48.658;2.328;2023-12-07T14:27:02;9.80;;;3.50;;
70549;SDS011;58101;48.658;2.328;2023-12-07T14:29:31;9.23;;;3.55;;
70549;SDS011;58101;48.658;2.328;2023-12-07T14:31:57;8.95;;;2.80;;
70549;SDS011;58101;48.658;2.328;2023-12-07T14:34:23;9.50;;;3.13;;
70549;SDS011;58101;48.658;2.328;2023-12-07T14:36:53;9.18;;;3.30;;
70549;SDS011;58101;48.658;2.328;2023-12-07T14:39:19;8.85;;;3.17;;
70549;SDS011;58101;48.658;2.328;2023-12-07T14:41:46;10.93;;;2.90;;
70549;SDS011;58101;48.658;2.328;2023-12-07T14:44:13;10.93;;;5.13;;
70549;SDS011;58101;48.658;2.328;2023-12-07T14:46:41;10.60;;;4.15;;
70549;SDS011;58101;48.658;2.328;2023-12-07T14:49:13;11.52;;;4.80;;
70549;SDS011;58101;48.658;2.328;2023-12-07T14:51:40;10.05;;;3.40;;
70549;SDS011;58101;48.658;2.328;2023-12-07T14:54:06;13.85;;;5.45;;
70549;SDS011;58101;48.658;2.328;2023-12-07T14:56:32;9.07;;;3.63;;
70549;SDS011;58101;48.658;2.328;2023-12-07T14:59:01;14.85;;;5.38;;
70549;SDS011;58101;48.658;2.328;2023-12-07T15:01:27;8.13;;;2.85;;